createdAt,value
2022-10-28T00:00:47.449Z,6.93
2022-10-28T00:03:56.749Z,6.58
2022-10-28T00:07:03.002Z,6.54
2022-10-28T00:10:10.291Z,7.08
2022-10-28T00:13:16.441Z,6.41
2022-10-28T00:16:25.381Z,6.73
2022-10-28T00:19:32.777Z,6.10
2022-10-28T00:22:39.051Z,6.46
2022-10-28T00:25:45.330Z,6.57
2022-10-28T00:28:53.507Z,6.71
2022-10-28T00:31:59.239Z,6.86
2022-10-28T00:35:08.144Z,6.79
2022-10-28T00:38:14.012Z,6.88
2022-10-28T00:41:24.492Z,5.76
2022-10-28T00:44:56.319Z,6.54
2022-10-28T00:48:04.403Z,6.69
2022-10-28T00:51:11.957Z,6.25
2022-10-28T00:54:19.710Z,6.23
2022-10-28T00:57:30.110Z,6.07
2022-10-28T01:00:36.499Z,6.35
2022-10-28T01:03:42.698Z,6.67
2022-10-28T01:06:50.425Z,6.65
2022-10-28T01:09:56.828Z,6.68
2022-10-28T01:13:12.812Z,5.62
2022-10-28T01:16:30.911Z,5.57
2022-10-28T01:20:02.589Z,5.57
2022-10-28T01:23:19.572Z,5.73
2022-10-28T01:26:42.102Z,6.07
2022-10-28T01:30:01.243Z,5.60
2022-10-28T01:33:15.706Z,4.86
2022-10-28T01:36:33.253Z,5.23
2022-10-28T01:39:49.652Z,5.17
2022-10-28T01:43:06.584Z,5.19
2022-10-28T01:46:18.463Z,5.03
2022-10-28T01:49:32.384Z,5.95
2022-10-28T01:52:41.765Z,6.28
2022-10-28T01:55:51.264Z,6.42
2022-10-28T01:59:00.350Z,6.11
2022-10-28T02:02:06.428Z,5.38
2022-10-28T02:05:38.811Z,6.12
2022-10-28T02:08:59.540Z,5.40
2022-10-28T02:12:30.911Z,5.93
2022-10-28T02:15:44.599Z,5.37
2022-10-28T02:19:00.617Z,5.11
2022-10-28T02:22:16.996Z,4.99
2022-10-28T02:25:27.120Z,4.74
2022-10-28T02:28:41.060Z,4.39
2022-10-28T02:31:51.847Z,4.48
2022-10-28T02:35:00.690Z,4.84
2022-10-28T02:38:12.843Z,5.30
2022-10-28T02:41:28.405Z,5.04
2022-10-28T02:44:36.730Z,5.42
2022-10-28T02:47:55.431Z,5.79
2022-10-28T02:51:07.306Z,5.67
2022-10-28T02:54:17.490Z,5.17
2022-10-28T02:57:26.672Z,5.73
2022-10-28T03:00:32.754Z,6.06
2022-10-28T03:03:39.018Z,4.65
2022-10-28T03:06:45.338Z,4.50
2022-10-28T03:09:53.125Z,4.37
2022-10-28T03:12:59.079Z,4.82
2022-10-28T03:16:05.868Z,4.93
2022-10-28T03:19:11.944Z,4.45
2022-10-28T03:22:18.142Z,4.07
2022-10-28T03:25:25.624Z,4.12
2022-10-28T03:28:31.602Z,4.33
2022-10-28T03:31:37.883Z,4.79
2022-10-28T03:34:44.186Z,4.61
2022-10-28T03:37:50.636Z,4.89
2022-10-28T03:40:58.498Z,5.27
2022-10-28T03:44:04.557Z,5.47
2022-10-28T03:47:10.914Z,5.43
2022-10-28T03:50:17.506Z,5.16
2022-10-28T03:53:27.599Z,5.05
2022-10-28T03:56:40.616Z,5.13
2022-10-28T03:59:46.747Z,4.76
2022-10-28T04:02:53.879Z,4.62
2022-10-28T04:06:00.346Z,4.22
2022-10-28T04:09:06.649Z,4.72
2022-10-28T04:12:14.433Z,5.18
2022-10-28T04:15:20.731Z,4.49
2022-10-28T04:18:27.061Z,4.67
2022-10-28T04:21:33.662Z,4.02
2022-10-28T04:24:39.955Z,4.78
2022-10-28T04:27:47.967Z,4.59
2022-10-28T04:30:54.328Z,4.91
2022-10-28T04:34:01.439Z,5.01
2022-10-28T04:37:07.841Z,4.84
2022-10-28T04:40:14.391Z,4.41
2022-10-28T04:43:22.067Z,4.28
2022-10-28T04:46:28.036Z,4.00
2022-10-28T04:49:36.652Z,4.49
2022-10-28T04:52:45.242Z,3.79
2022-10-28T04:55:51.454Z,3.93
2022-10-28T04:58:59.028Z,3.87
2022-10-28T05:02:05.213Z,3.46
2022-10-28T05:05:11.355Z,3.51
2022-10-28T05:08:17.212Z,3.80
2022-10-28T05:11:23.834Z,3.85
2022-10-28T05:14:31.606Z,3.91
2022-10-28T05:17:39.070Z,4.34
2022-10-28T05:20:45.172Z,4.79
2022-10-28T05:23:51.081Z,4.88
2022-10-28T05:26:57.541Z,4.12
2022-10-28T05:30:06.282Z,4.47
2022-10-28T05:33:12.984Z,4.89
2022-10-28T05:36:19.083Z,4.63
2022-10-28T05:39:25.370Z,5.35
2022-10-28T05:42:31.816Z,5.66
2022-10-28T05:45:39.491Z,6.34
2022-10-28T05:48:45.738Z,6.48
2022-10-28T05:51:52.034Z,6.82
2022-10-28T05:54:58.378Z,7.23
2022-10-28T05:58:04.583Z,7.06
2022-10-28T06:01:12.485Z,6.96
2022-10-28T06:04:18.553Z,7.12
2022-10-28T06:07:25.474Z,7.62
2022-10-28T06:10:31.440Z,8.05
2022-10-28T06:13:36.233Z,8.26
2022-10-28T06:16:43.842Z,8.30
2022-10-28T06:19:49.994Z,7.72
2022-10-28T06:22:56.449Z,7.44
2022-10-28T06:26:04.261Z,8.04
2022-10-28T06:29:10.934Z,8.22
2022-10-28T06:32:18.502Z,8.42
2022-10-28T06:35:24.758Z,8.46
2022-10-28T06:38:31.228Z,8.64
2022-10-28T06:41:37.491Z,9.01
2022-10-28T06:44:43.815Z,8.94
2022-10-28T06:47:56.666Z,8.91
2022-10-28T06:51:02.623Z,9.57
2022-10-28T06:54:09.120Z,9.62
2022-10-28T06:57:15.680Z,9.84
2022-10-28T07:00:22.292Z,9.92
2022-10-28T07:03:29.638Z,10.30
2022-10-28T07:06:35.624Z,10.55
2022-10-28T07:09:45.143Z,10.54
2022-10-28T07:12:53.802Z,10.51
2022-10-28T07:16:01.940Z,10.34
2022-10-28T07:19:09.330Z,11.15
2022-10-28T07:22:15.406Z,10.79
2022-10-28T07:25:21.683Z,11.25
2022-10-28T07:28:29.015Z,11.80
2022-10-28T07:31:35.440Z,11.63
2022-10-28T07:34:43.164Z,12.21
2022-10-28T07:37:48.915Z,12.21
2022-10-28T07:40:55.178Z,12.53
2022-10-28T07:44:01.354Z,12.61
2022-10-28T07:47:07.650Z,12.30
2022-10-28T07:50:15.502Z,12.66
2022-10-28T07:53:24.819Z,12.39
2022-10-28T07:56:34.076Z,13.28
2022-10-28T07:59:40.240Z,13.31
2022-10-28T08:02:46.350Z,13.66
2022-10-28T08:06:01.382Z,13.34
2022-10-28T08:09:07.372Z,13.61
2022-10-28T08:12:15.697Z,14.03
2022-10-28T08:15:23.880Z,13.93
2022-10-28T08:18:30.061Z,14.34
2022-10-28T08:21:37.894Z,14.65
2022-10-28T08:24:43.965Z,14.58
2022-10-28T08:27:50.134Z,15.01
2022-10-28T08:31:09.801Z,14.96
2022-10-28T08:34:15.891Z,14.94
2022-10-28T08:37:23.409Z,15.28
2022-10-28T08:40:35.657Z,15.02
2022-10-28T08:44:00.982Z,15.47
2022-10-28T08:47:17.087Z,15.51
2022-10-28T08:50:25.934Z,15.68
2022-10-28T08:53:40.638Z,16.27
2022-10-28T08:56:48.877Z,16.44
2022-10-28T08:59:56.054Z,16.27
2022-10-28T09:03:18.028Z,16.41
2022-10-28T09:06:24.251Z,17.03
2022-10-28T09:09:32.557Z,16.98
2022-10-28T09:12:44.639Z,16.70
2022-10-28T09:15:59.725Z,17.07
2022-10-28T09:19:15.925Z,17.39
2022-10-28T09:22:28.576Z,17.36
2022-10-28T09:25:48.930Z,17.57
2022-10-28T09:29:04.276Z,17.51
2022-10-28T09:32:23.997Z,17.39
2022-10-28T09:35:34.314Z,17.63
2022-10-28T09:38:41.357Z,17.84
2022-10-28T09:41:50.614Z,17.57
2022-10-28T09:45:01.200Z,18.33
2022-10-28T09:48:15.874Z,18.08
2022-10-28T09:51:30.092Z,18.47
2022-10-28T09:54:41.065Z,17.94
2022-10-28T09:57:48.692Z,18.77
2022-10-28T10:00:55.104Z,18.19
2022-10-28T10:04:02.125Z,18.55
2022-10-28T10:07:12.522Z,18.34
2022-10-28T10:10:24.674Z,18.79
2022-10-28T10:13:38.056Z,19.06
2022-10-28T10:16:48.882Z,19.62
2022-10-28T10:20:03.988Z,19.61
2022-10-28T10:23:24.138Z,19.52
2022-10-28T10:26:34.730Z,19.54
2022-10-28T10:29:46.734Z,19.26
2022-10-28T10:32:53.859Z,19.13
2022-10-28T10:36:04.070Z,19.17
2022-10-28T10:39:23.170Z,19.09
2022-10-28T10:42:29.174Z,19.50
2022-10-28T10:45:36.824Z,19.32
2022-10-28T10:48:43.773Z,19.26
2022-10-28T10:51:53.529Z,19.46
2022-10-28T10:55:08.103Z,19.57
2022-10-28T10:58:20.058Z,20.16
2022-10-28T11:01:30.348Z,19.94
2022-10-28T11:04:36.942Z,19.73
2022-10-28T11:07:49.665Z,20.15
2022-10-28T11:11:14.380Z,19.76
2022-10-28T11:14:25.617Z,19.32
2022-10-28T11:17:35.407Z,20.28
2022-10-28T11:20:51.712Z,20.51
2022-10-28T11:24:11.445Z,20.43
2022-10-28T11:27:28.751Z,20.33
2022-10-28T11:30:47.045Z,20.18
2022-10-28T11:34:14.595Z,19.50
2022-10-28T11:37:28.610Z,19.97
2022-10-28T11:40:41.861Z,19.91
2022-10-28T11:43:55.004Z,20.42
2022-10-28T11:47:22.810Z,20.23
2022-10-28T11:50:59.510Z,20.76
2022-10-28T11:54:45.111Z,20.71
2022-10-28T11:58:06.124Z,20.27
2022-10-28T12:01:26.275Z,21.29
2022-10-28T12:04:49.967Z,20.65
2022-10-28T12:08:09.879Z,20.16
2022-10-28T12:11:29.850Z,20.72
2022-10-28T12:14:48.573Z,20.21
2022-10-28T12:18:06.062Z,21.30
2022-10-28T12:21:18.177Z,21.28
2022-10-28T12:24:27.625Z,20.97
2022-10-28T12:27:39.205Z,20.84
2022-10-28T12:30:47.596Z,20.76
2022-10-28T12:33:56.681Z,21.20
2022-10-28T12:37:08.421Z,21.51
2022-10-28T12:40:20.817Z,21.98
2022-10-28T12:43:33.773Z,21.27
2022-10-28T12:50:07.681Z,20.62
2022-10-28T12:53:35.517Z,20.57
2022-10-28T12:56:50.258Z,21.69
2022-10-28T13:00:03.161Z,21.98
2022-10-28T13:03:14.100Z,22.31
2022-10-28T13:06:52.841Z,22.60
2022-10-28T13:10:12.254Z,22.64
2022-10-28T13:13:37.054Z,22.85
2022-10-28T13:17:02.319Z,21.96
2022-10-28T13:20:18.637Z,22.58
2022-10-28T13:23:31.187Z,22.69
2022-10-28T13:26:42.497Z,22.67
2022-10-28T13:29:53.660Z,22.43
2022-10-28T13:33:07.365Z,22.67
2022-10-28T13:36:19.821Z,22.10
2022-10-28T13:39:40.562Z,22.90
2022-10-28T13:42:48.849Z,22.09
2022-10-28T13:45:57.592Z,21.21
2022-10-28T13:49:23.799Z,20.97
2022-10-28T13:52:29.774Z,20.22
2022-10-28T13:55:45.199Z,20.16
2022-10-28T13:58:54.670Z,19.46
2022-10-28T14:02:35.043Z,19.30
2022-10-28T14:05:57.394Z,18.45
2022-10-28T14:09:04.526Z,18.39
2022-10-28T14:12:19.002Z,18.41
2022-10-28T14:15:31.373Z,18.44
2022-10-28T14:18:44.365Z,18.13
2022-10-28T14:22:00.718Z,18.39
2022-10-28T14:25:54.826Z,18.22
2022-10-28T14:29:01.371Z,18.07
2022-10-28T14:32:43.849Z,17.73
2022-10-28T14:36:01.130Z,17.72
2022-10-28T14:39:33.558Z,17.48
2022-10-28T14:43:00.410Z,17.26
2022-10-28T14:46:18.034Z,17.12
2022-10-28T14:49:28.054Z,17.08
2022-10-28T14:52:38.337Z,16.83
2022-10-28T14:55:48.680Z,16.63
2022-10-28T14:58:58.772Z,16.41
2022-10-28T15:02:15.641Z,16.18
2022-10-28T15:05:24.918Z,15.88
2022-10-28T15:08:32.090Z,15.65
2022-10-28T15:11:38.111Z,15.92
2022-10-28T15:14:49.264Z,16.04
2022-10-28T15:17:56.438Z,15.89
2022-10-28T15:21:09.479Z,15.74
2022-10-28T15:24:17.121Z,15.61
2022-10-28T15:27:23.685Z,15.63
2022-10-28T15:30:30.091Z,15.59
2022-10-28T15:33:40.698Z,15.16
2022-10-28T15:36:50.482Z,14.42
2022-10-28T15:40:20.956Z,14.16
2022-10-28T15:43:28.896Z,13.96
2022-10-28T15:46:35.772Z,13.61
2022-10-28T15:49:42.636Z,13.46
2022-10-28T15:52:52.516Z,13.32
2022-10-28T15:56:20.109Z,13.08
2022-10-28T15:59:27.054Z,12.80
2022-10-28T16:02:45.980Z,12.68
2022-10-28T16:05:53.350Z,12.67
2022-10-28T16:09:02.822Z,12.95
2022-10-28T16:12:16.720Z,12.51
2022-10-28T16:15:22.830Z,12.36
2022-10-28T16:18:31.017Z,12.35
2022-10-28T16:21:39.114Z,12.01
2022-10-28T16:24:45.631Z,11.90
2022-10-28T16:27:54.958Z,11.91
2022-10-28T16:31:03.010Z,11.86
2022-10-28T16:34:15.030Z,11.87
2022-10-28T16:37:24.490Z,11.75
2022-10-28T16:40:50.505Z,11.55
2022-10-28T16:43:58.743Z,10.70
2022-10-28T16:47:12.121Z,10.73
2022-10-28T16:50:18.377Z,10.78
2022-10-28T16:53:24.908Z,10.65
2022-10-28T16:56:31.277Z,10.83
2022-10-28T16:59:38.960Z,10.96
2022-10-28T17:02:46.970Z,11.04
2022-10-28T17:05:52.865Z,11.17
2022-10-28T17:09:03.576Z,11.10
2022-10-28T17:12:14.439Z,10.73
2022-10-28T17:15:21.849Z,10.09
2022-10-28T17:18:27.648Z,10.97
2022-10-28T17:21:33.781Z,10.42
2022-10-28T17:24:40.418Z,10.33
2022-10-28T17:27:48.556Z,10.18
2022-10-28T17:30:55.757Z,9.55
2022-10-28T17:34:02.084Z,9.57
2022-10-28T17:37:08.804Z,9.33
2022-10-28T17:40:15.395Z,9.13
2022-10-28T17:43:21.551Z,9.36
2022-10-28T17:46:29.265Z,9.08
2022-10-28T17:49:36.613Z,9.10
2022-10-28T17:52:43.016Z,9.12
2022-10-28T17:55:57.121Z,8.81
2022-10-28T17:59:03.190Z,8.67
2022-10-28T18:02:12.809Z,8.18
2022-10-28T18:05:19.399Z,8.23
2022-10-28T18:08:25.846Z,8.10
2022-10-28T18:11:34.121Z,8.37
2022-10-28T18:14:40.533Z,7.86
2022-10-28T18:17:51.652Z,7.94
2022-10-28T18:20:57.811Z,7.68
2022-10-28T18:24:07.080Z,7.50
2022-10-28T18:27:13.027Z,7.69
2022-10-28T18:30:19.325Z,7.73
2022-10-28T18:33:26.842Z,7.37
2022-10-28T18:36:35.765Z,7.19
2022-10-28T18:39:41.719Z,7.04
2022-10-28T18:42:48.045Z,6.85
2022-10-28T18:45:54.499Z,7.39
2022-10-28T18:49:01.990Z,7.31
2022-10-28T18:52:08.245Z,7.84
2022-10-28T18:55:14.264Z,7.08
2022-10-28T18:58:20.638Z,6.93
2022-10-28T19:01:28.298Z,7.19
2022-10-28T19:04:36.405Z,6.86
2022-10-28T19:07:42.675Z,6.77
2022-10-28T19:10:49.821Z,7.11
2022-10-28T19:13:56.226Z,6.72
2022-10-28T19:17:03.322Z,6.53
2022-10-28T19:20:12.134Z,7.02
2022-10-28T19:23:18.404Z,6.71
2022-10-28T19:26:24.867Z,6.54
2022-10-28T19:29:31.009Z,6.26
2022-10-28T19:32:38.937Z,6.00
2022-10-28T19:35:46.441Z,6.09
2022-10-28T19:38:53.958Z,6.56
2022-10-28T19:42:00.137Z,6.43
2022-10-28T19:45:07.502Z,6.25
2022-10-28T19:48:13.822Z,6.00
2022-10-28T19:51:23.097Z,6.48
2022-10-28T19:54:29.470Z,6.70
2022-10-28T19:57:35.728Z,6.50
2022-10-28T20:00:41.783Z,6.61
2022-10-28T20:03:49.344Z,6.75
2022-10-28T20:06:57.741Z,6.60
2022-10-28T20:10:03.673Z,6.21
2022-10-28T20:13:10.304Z,6.12
2022-10-28T20:16:17.943Z,6.52
2022-10-28T20:19:24.020Z,6.13
2022-10-28T20:22:31.718Z,5.86
2022-10-28T20:25:37.740Z,5.46
2022-10-28T20:28:44.285Z,5.32
2022-10-28T20:31:50.357Z,5.94
2022-10-28T20:34:57.193Z,5.51
2022-10-28T20:38:04.753Z,5.28
2022-10-28T20:41:11.985Z,5.63
2022-10-28T20:44:18.621Z,5.26
2022-10-28T20:47:25.130Z,5.09
2022-10-28T20:50:31.282Z,4.97
2022-10-28T20:53:38.988Z,4.96
2022-10-28T20:56:45.083Z,4.92
2022-10-28T20:59:51.782Z,5.58
2022-10-28T21:02:58.365Z,5.45
2022-10-28T21:06:05.409Z,5.28
2022-10-28T21:09:12.834Z,5.20
2022-10-28T21:12:18.727Z,5.03
2022-10-28T21:15:24.992Z,4.60
2022-10-28T21:18:31.377Z,4.82
2022-10-28T21:21:37.629Z,4.99
2022-10-28T21:24:45.257Z,5.40
2022-10-28T21:27:51.332Z,5.30
2022-10-28T21:31:01.617Z,5.82
2022-10-28T21:34:08.552Z,5.99
2022-10-28T21:37:14.837Z,6.03
2022-10-28T21:40:22.618Z,5.46
2022-10-28T21:43:29.880Z,4.07
2022-10-28T21:46:36.006Z,4.32
2022-10-28T21:49:42.550Z,4.03
2022-10-28T21:52:49.064Z,4.12
2022-10-28T21:56:03.988Z,4.63
2022-10-28T21:59:10.433Z,5.04
2022-10-28T22:02:17.089Z,4.98
2022-10-28T22:05:23.289Z,4.61
2022-10-28T22:08:29.919Z,4.74
2022-10-28T22:11:37.487Z,5.11
2022-10-28T22:14:43.974Z,5.51
2022-10-28T22:17:50.538Z,4.34
2022-10-28T22:20:56.829Z,4.91
2022-10-28T22:24:02.882Z,5.05
2022-10-28T22:27:10.774Z,5.30
2022-10-28T22:30:16.944Z,4.17
2022-10-28T22:33:23.502Z,3.50
2022-10-28T22:36:31.102Z,3.93
2022-10-28T22:39:37.120Z,4.40
2022-10-28T22:42:44.941Z,4.69
2022-10-28T22:45:50.961Z,5.09
2022-10-28T22:48:57.830Z,5.13
2022-10-28T22:52:04.378Z,4.63
2022-10-28T22:55:11.489Z,4.78
2022-10-28T22:58:19.131Z,4.52
2022-10-28T23:01:26.660Z,4.73
2022-10-28T23:04:33.018Z,4.29
2022-10-28T23:07:39.247Z,3.44
2022-10-28T23:10:45.151Z,3.18
2022-10-28T23:13:53.918Z,4.00
2022-10-28T23:17:00.062Z,4.61
2022-10-28T23:20:07.121Z,4.84
2022-10-28T23:23:13.187Z,4.78
2022-10-28T23:26:19.543Z,4.34
2022-10-28T23:29:27.429Z,4.25
2022-10-28T23:32:33.366Z,4.44
2022-10-28T23:35:39.222Z,4.26
2022-10-28T23:38:45.972Z,3.67
2022-10-28T23:41:52.017Z,3.53
2022-10-28T23:44:59.661Z,4.19
2022-10-28T23:48:05.862Z,3.73
2022-10-28T23:51:12.000Z,2.70
2022-10-28T23:54:18.253Z,3.14
2022-10-28T23:57:25.092Z,2.95
